Shawville, Vermont
Current Conditions -  °F | °C
As of 12:55 AM on Tuesday 27 Jan 2015 (Local Time) from KFSO Reporting Station
Clear Clear  
Wind Chill:   Ceiling: Unl
Heat Index:   Visibility: 10mi
Dew Point: -4°   Wind: 3mph
Humidity: 70%   Direction: 340°NNW
Pressure: 30.06"   Gusts: NA
Location:  44.9656°N, 72.8975°W
Report Text: KFSO 270555Z AUTO 34003KT 10SM CLR M16/M20 A3006 RMK AO2 T11581202 11151 21161
Loading
Personal Weather Stations






























Interactive Weather Map New forecast layout! Learn more

10-Day Weather Forecast

Advertisements
Track Severe Weather on mobile